createdAt,value
2023-02-04T00:01:32.190Z,1.74
2023-02-04T00:02:42.591Z,1.65
2023-02-04T00:03:51.940Z,1.65
2023-02-04T00:05:03.632Z,1.66
2023-02-04T00:06:14.505Z,1.57
2023-02-04T00:08:38.773Z,1.70
2023-02-04T00:11:05.271Z,1.73
2023-02-04T00:12:16.814Z,1.64
2023-02-04T00:13:25.391Z,1.65
2023-02-04T00:14:34.883Z,1.67
2023-02-04T00:15:43.795Z,1.69
2023-02-04T00:18:11.628Z,1.77
2023-02-04T00:19:20.861Z,1.67
2023-02-04T00:20:30.256Z,1.69
2023-02-04T00:21:39.635Z,1.70
2023-02-04T00:22:50.652Z,1.68
2023-02-04T00:24:02.561Z,1.68
2023-02-04T00:25:12.602Z,1.69
2023-02-04T00:27:37.106Z,1.80
2023-02-04T00:28:45.933Z,1.66
2023-02-04T00:29:55.016Z,1.62
2023-02-04T00:31:05.286Z,1.56
2023-02-04T00:32:15.982Z,1.57
2023-02-04T00:33:25.106Z,1.52
2023-02-04T00:35:49.933Z,1.64
2023-02-04T00:36:59.159Z,1.56
2023-02-04T00:38:08.170Z,1.58
2023-02-04T00:39:19.999Z,1.59
2023-02-04T00:40:29.397Z,1.59
2023-02-04T00:41:40.058Z,1.61
2023-02-04T00:42:49.638Z,1.61
2023-02-04T00:43:59.603Z,1.59
2023-02-04T00:45:10.255Z,1.60
2023-02-04T00:47:36.696Z,1.60
2023-02-04T00:48:46.126Z,1.40
2023-02-04T00:49:55.904Z,1.37
2023-02-04T00:51:06.004Z,1.34
2023-02-04T00:52:15.128Z,1.27
2023-02-04T00:53:23.654Z,1.24
2023-02-04T00:54:33.166Z,1.28
2023-02-04T00:55:43.600Z,1.29
2023-02-04T00:58:14.814Z,1.43
2023-02-04T00:59:24.861Z,1.30
2023-02-04T01:00:33.585Z,1.24
2023-02-04T01:01:42.817Z,1.17
2023-02-04T01:02:51.605Z,1.16
2023-02-04T01:04:02.006Z,1.16
2023-02-04T01:05:11.089Z,1.18
2023-02-04T01:06:20.968Z,1.19
2023-02-04T01:07:30.649Z,1.21
2023-02-04T01:08:40.716Z,1.21
2023-02-04T01:09:57.054Z,1.23
2023-02-04T01:12:22.925Z,1.32
2023-02-04T01:13:32.969Z,1.25
2023-02-04T01:14:42.604Z,1.28
2023-02-04T01:15:58.761Z,1.23
2023-02-04T01:17:07.916Z,1.25
2023-02-04T01:18:17.014Z,1.28
2023-02-04T01:19:25.880Z,1.31
2023-02-04T01:20:35.433Z,1.32
2023-02-04T01:21:44.722Z,1.35
2023-02-04T01:22:53.707Z,1.34
2023-02-04T01:24:03.576Z,1.34
2023-02-04T01:25:12.357Z,1.33
2023-02-04T01:27:40.844Z,1.50
2023-02-04T01:28:50.580Z,1.38
2023-02-04T01:30:00.204Z,1.38
2023-02-04T01:31:09.815Z,1.38
2023-02-04T01:32:18.726Z,1.40
2023-02-04T01:33:29.699Z,1.37
2023-02-04T01:35:54.002Z,1.47
2023-02-04T01:37:03.951Z,1.32
2023-02-04T01:38:13.026Z,1.30
2023-02-04T01:39:22.909Z,1.35
2023-02-04T01:40:32.771Z,1.39
2023-02-04T01:41:42.577Z,1.40
2023-02-04T01:42:52.855Z,1.41
2023-02-04T01:44:03.684Z,1.43
2023-02-04T01:45:13.084Z,1.42
2023-02-04T01:47:38.523Z,1.45
2023-02-04T01:48:47.638Z,1.34
2023-02-04T01:49:57.248Z,1.33
2023-02-04T01:51:08.566Z,1.32
2023-02-04T01:52:18.217Z,1.30
2023-02-04T01:53:27.206Z,1.33
2023-02-04T01:55:52.328Z,1.50
2023-02-04T01:57:02.172Z,1.40
2023-02-04T01:58:12.685Z,1.42
2023-02-04T01:59:22.106Z,1.41
2023-02-04T02:00:33.808Z,1.43
2023-02-04T02:01:46.715Z,1.46
2023-02-04T02:02:57.065Z,1.48
2023-02-04T02:04:06.159Z,1.49
2023-02-04T02:05:21.301Z,1.47
2023-02-04T02:06:31.515Z,1.47
2023-02-04T02:07:41.272Z,1.49
2023-02-04T02:10:08.241Z,1.60
2023-02-04T02:11:18.563Z,1.45
2023-02-04T02:12:29.831Z,1.44
2023-02-04T02:13:38.352Z,1.45
2023-02-04T02:14:47.453Z,1.45
2023-02-04T02:16:02.345Z,1.44
2023-02-04T02:17:11.888Z,1.42
2023-02-04T02:19:44.914Z,1.41
2023-02-04T02:22:17.682Z,1.46
2023-02-04T02:23:46.814Z,1.25
2023-02-04T02:24:57.943Z,1.26
2023-02-04T02:26:09.058Z,1.06
2023-02-04T02:27:19.234Z,1.15
2023-02-04T02:28:31.019Z,1.14
2023-02-04T02:29:44.330Z,1.13
2023-02-04T02:30:54.833Z,1.12
2023-02-04T02:32:07.459Z,1.14
2023-02-04T02:33:18.438Z,1.09
2023-02-04T02:35:50.455Z,1.21
2023-02-04T02:37:01.829Z,1.04
2023-02-04T02:38:15.553Z,1.10
2023-02-04T02:39:25.934Z,1.10
2023-02-04T02:40:36.388Z,1.15
2023-02-04T02:41:46.882Z,1.16
2023-02-04T02:42:56.675Z,1.17
2023-02-04T02:44:05.889Z,1.14
2023-02-04T03:02:24.699Z,1.30
2023-02-04T03:03:39.001Z,1.28
2023-02-04T03:04:52.935Z,1.29
2023-02-04T03:06:10.242Z,1.30
2023-02-04T03:07:22.329Z,1.29
2023-02-04T03:08:31.080Z,1.27
2023-02-04T03:09:41.987Z,1.27
2023-02-04T03:10:51.974Z,1.30
2023-02-04T03:13:18.751Z,1.41
2023-02-04T03:14:27.978Z,1.32
2023-02-04T03:15:38.117Z,1.32
2023-02-04T03:16:49.003Z,1.33
2023-02-04T03:18:00.118Z,1.34
2023-02-04T03:19:09.812Z,1.27
2023-02-04T03:20:20.194Z,1.28
2023-02-04T03:21:29.790Z,1.30
2023-02-04T03:22:39.162Z,1.31
2023-02-04T03:23:48.690Z,1.31
2023-02-04T03:24:59.072Z,1.23
2023-02-04T03:26:09.837Z,1.25
2023-02-04T03:28:42.926Z,1.21
2023-02-04T03:29:51.943Z,1.14
2023-02-04T03:32:21.035Z,1.27
2023-02-04T03:33:31.472Z,1.18
2023-02-04T03:35:57.510Z,1.34
2023-02-04T03:37:06.250Z,1.27
2023-02-04T03:38:15.859Z,1.29
2023-02-04T03:39:26.484Z,1.29
2023-02-04T03:40:35.506Z,1.33
2023-02-04T03:41:46.430Z,1.38
2023-02-04T03:42:54.879Z,1.34
2023-02-04T03:45:27.077Z,1.46
2023-02-04T03:46:36.134Z,1.38
2023-02-04T03:48:59.679Z,1.53
2023-02-04T03:50:10.853Z,1.41
2023-02-04T03:51:20.136Z,1.40
2023-02-04T03:52:29.167Z,1.39
2023-02-04T03:53:39.621Z,1.38
2023-02-04T03:54:49.462Z,1.37
2023-02-04T03:55:57.963Z,1.39
2023-02-04T03:57:07.036Z,1.38
2023-02-04T03:58:16.494Z,1.39
2023-02-04T03:59:25.709Z,1.39
2023-02-04T04:01:52.143Z,1.50
2023-02-04T04:03:02.124Z,1.37
2023-02-04T04:04:11.615Z,1.36
2023-02-04T04:05:20.711Z,1.36
2023-02-04T04:06:31.113Z,1.35
2023-02-04T04:07:40.123Z,1.29
2023-02-04T04:08:49.638Z,1.31
2023-02-04T04:09:58.969Z,1.35
2023-02-04T04:11:07.986Z,1.35
2023-02-04T04:12:17.817Z,1.39
2023-02-04T04:13:26.355Z,1.44
2023-02-04T04:14:36.188Z,1.41
2023-02-04T04:15:45.851Z,1.42
2023-02-04T04:16:55.390Z,1.44
2023-02-04T04:18:04.648Z,1.45
2023-02-04T04:19:14.397Z,1.43
2023-02-04T04:20:26.258Z,1.41
2023-02-04T04:22:52.965Z,1.48
2023-02-04T04:25:18.608Z,1.49
2023-02-04T04:27:44.243Z,1.51
2023-02-04T04:28:54.568Z,1.43
2023-02-04T04:30:04.854Z,1.43
2023-02-04T04:31:15.058Z,1.41
2023-02-04T04:33:42.650Z,1.50
2023-02-04T04:34:52.148Z,1.32
2023-02-04T04:36:01.671Z,1.25
2023-02-04T04:37:10.189Z,1.24
2023-02-04T04:38:19.369Z,1.24
2023-02-04T04:39:28.298Z,1.26
2023-02-04T04:40:37.007Z,1.25
2023-02-04T04:43:01.448Z,1.36
2023-02-04T04:44:10.542Z,1.26
2023-02-04T04:45:19.443Z,1.26
2023-02-04T04:46:28.289Z,1.29
2023-02-04T04:47:39.626Z,1.32
2023-02-04T04:48:49.092Z,1.30
2023-02-04T04:49:58.635Z,1.28
2023-02-04T04:52:22.628Z,1.38
2023-02-04T04:54:46.831Z,1.40
2023-02-04T04:57:11.456Z,1.41
2023-02-04T04:58:21.167Z,1.33
2023-02-04T04:59:31.883Z,1.35
2023-02-04T05:00:41.992Z,1.37
2023-02-04T05:01:51.695Z,1.39
2023-02-04T05:03:02.013Z,1.37
2023-02-04T05:04:11.483Z,1.38
2023-02-04T05:05:21.104Z,1.40
2023-02-04T05:06:30.125Z,1.34
2023-02-04T05:07:39.517Z,1.33
2023-02-04T05:08:49.087Z,1.32
2023-02-04T05:11:13.298Z,1.44
2023-02-04T05:12:22.260Z,1.31
2023-02-04T05:13:31.909Z,1.31
2023-02-04T05:15:56.302Z,1.35
2023-02-04T05:17:06.537Z,1.25
2023-02-04T05:18:15.453Z,1.19
2023-02-04T05:19:24.011Z,1.21
2023-02-04T05:20:34.918Z,1.23
2023-02-04T05:21:44.667Z,1.25
2023-02-04T05:22:55.374Z,1.25
2023-02-04T05:24:07.125Z,1.27
2023-02-04T05:26:33.955Z,1.41
2023-02-04T05:27:44.957Z,1.32
2023-02-04T05:30:11.867Z,1.41
2023-02-04T05:31:21.037Z,1.30
2023-02-04T05:33:44.690Z,1.45
2023-02-04T05:34:53.205Z,1.33
2023-02-04T05:36:02.762Z,1.31
2023-02-04T05:37:11.957Z,1.30
2023-02-04T05:38:20.674Z,1.24
2023-02-04T05:39:29.727Z,1.25
2023-02-04T05:40:40.958Z,1.26
2023-02-04T05:41:50.212Z,1.22
2023-02-04T05:42:59.522Z,1.21
2023-02-04T05:44:09.501Z,1.22
2023-02-04T05:45:19.842Z,1.22
2023-02-04T05:47:43.864Z,1.32
2023-02-04T05:48:53.430Z,1.22
2023-02-04T05:50:03.367Z,1.22
2023-02-04T05:51:12.455Z,1.22
2023-02-04T05:52:20.975Z,1.23
2023-02-04T05:53:30.849Z,1.25
2023-02-04T05:54:39.365Z,1.28
2023-02-04T05:55:49.065Z,1.31
2023-02-04T05:56:57.977Z,1.31
2023-02-04T05:58:06.490Z,1.31
2023-02-04T05:59:15.408Z,1.30
2023-02-04T06:00:24.626Z,1.32
2023-02-04T06:01:41.355Z,1.35
2023-02-04T06:02:50.523Z,1.36
2023-02-04T06:04:00.164Z,1.36
2023-02-04T06:05:09.295Z,1.39
2023-02-04T06:06:18.709Z,1.38
2023-02-04T06:07:29.373Z,1.39
2023-02-04T06:08:37.920Z,1.41
2023-02-04T06:09:46.954Z,1.44
2023-02-04T06:10:56.571Z,1.42
2023-02-04T06:12:05.875Z,1.43
2023-02-04T06:13:16.150Z,1.44
2023-02-04T06:14:24.946Z,1.41
2023-02-04T06:16:48.658Z,1.39
2023-02-04T06:17:59.157Z,1.28
2023-02-04T06:19:07.829Z,1.22
2023-02-04T06:20:17.889Z,1.14
2023-02-04T06:21:26.519Z,1.21
2023-02-04T06:22:35.074Z,1.24
2023-02-04T06:23:44.429Z,1.24
2023-02-04T06:24:52.946Z,1.23
2023-02-04T06:26:03.308Z,1.23
2023-02-04T06:27:12.264Z,1.21
2023-02-04T06:28:20.902Z,1.17
2023-02-04T06:29:29.854Z,1.18
2023-02-04T06:30:44.977Z,1.18
2023-02-04T06:31:54.136Z,1.19
2023-02-04T06:33:04.980Z,1.18
2023-02-04T06:34:13.498Z,1.17
2023-02-04T06:35:22.568Z,1.20
2023-02-04T06:36:35.361Z,1.24
2023-02-04T06:39:00.013Z,1.42
2023-02-04T06:41:24.905Z,1.41
2023-02-04T06:42:33.458Z,1.33
2023-02-04T06:43:45.742Z,1.35
2023-02-04T06:44:54.386Z,1.32
2023-02-04T06:46:04.162Z,1.32
2023-02-04T06:47:13.275Z,1.32
2023-02-04T06:48:22.367Z,1.35
2023-02-04T06:49:30.926Z,1.38
2023-02-04T06:50:39.766Z,1.44
2023-02-04T06:51:48.914Z,1.44
2023-02-04T06:52:57.537Z,1.41
2023-02-04T06:54:06.313Z,1.35
2023-02-04T06:55:17.286Z,1.36
2023-02-04T06:56:27.835Z,1.24
2023-02-04T06:57:36.480Z,1.25
2023-02-04T06:58:46.842Z,1.22
2023-02-04T06:59:55.681Z,1.22
2023-02-04T07:01:06.337Z,1.19
2023-02-04T07:02:15.201Z,1.16
2023-02-04T07:03:24.814Z,1.15
2023-02-04T07:04:34.972Z,1.17
2023-02-04T07:05:44.289Z,1.21
2023-02-04T07:06:53.407Z,1.21
2023-02-04T07:08:02.057Z,1.23
2023-02-04T07:09:10.810Z,1.25
2023-02-04T07:10:20.560Z,1.27
2023-02-04T07:11:30.020Z,1.30
2023-02-04T07:12:39.631Z,1.34
2023-02-04T07:13:50.242Z,1.37
2023-02-04T07:14:59.920Z,1.39
2023-02-04T07:16:08.526Z,1.44
2023-02-04T07:17:17.346Z,1.38
2023-02-04T07:18:26.092Z,1.40
2023-02-04T07:19:36.910Z,1.44
2023-02-04T07:20:46.852Z,1.48
2023-02-04T07:21:56.273Z,1.49
2023-02-04T07:23:04.821Z,1.49
2023-02-04T07:24:13.695Z,1.47
2023-02-04T07:25:23.317Z,1.36
2023-02-04T07:26:33.861Z,1.30
2023-02-04T07:28:58.317Z,1.49
2023-02-04T07:31:24.411Z,1.51
2023-02-04T07:32:34.349Z,1.41
2023-02-04T07:33:43.613Z,1.46
2023-02-04T07:34:52.960Z,1.47
2023-02-04T07:36:01.953Z,1.41
2023-02-04T07:37:10.491Z,1.42
2023-02-04T07:39:35.272Z,1.42
2023-02-04T07:42:01.270Z,1.45
2023-02-04T07:43:12.030Z,1.31
2023-02-04T07:44:21.781Z,1.31
2023-02-04T07:45:30.631Z,1.33
2023-02-04T07:46:40.938Z,1.38
2023-02-04T07:47:50.085Z,1.39
2023-02-04T07:48:59.061Z,1.36
2023-02-04T07:50:09.636Z,1.37
2023-02-04T07:51:18.655Z,1.40
2023-02-04T07:52:27.643Z,1.44
2023-02-04T07:53:36.149Z,1.46
2023-02-04T07:54:44.907Z,1.44
2023-02-04T07:55:53.880Z,1.44
2023-02-04T07:58:18.410Z,1.53
2023-02-04T07:59:26.910Z,1.44
2023-02-04T08:00:35.544Z,1.41
2023-02-04T08:01:45.598Z,1.42
2023-02-04T08:02:54.497Z,1.35
2023-02-04T08:04:03.901Z,1.32
2023-02-04T08:05:12.727Z,1.31
2023-02-04T08:06:23.805Z,1.32
2023-02-04T08:07:32.772Z,1.29
2023-02-04T08:08:42.809Z,1.32
2023-02-04T08:09:52.447Z,1.33
2023-02-04T08:11:02.190Z,1.33
2023-02-04T08:12:11.301Z,1.33
2023-02-04T08:13:19.949Z,1.34
2023-02-04T08:14:28.941Z,1.36
2023-02-04T08:15:39.421Z,1.40
2023-02-04T08:16:48.054Z,1.43
2023-02-04T08:17:56.631Z,1.39
2023-02-04T08:19:05.182Z,1.37
2023-02-04T08:20:17.194Z,1.40
2023-02-04T08:21:26.822Z,1.42
2023-02-04T08:22:35.437Z,1.33
2023-02-04T08:23:44.550Z,1.36
2023-02-04T08:24:53.470Z,1.40
2023-02-04T08:26:02.288Z,1.46
2023-02-04T08:28:27.891Z,1.66
2023-02-04T08:30:52.352Z,1.68
2023-02-04T08:32:02.308Z,1.58
2023-02-04T08:33:11.327Z,1.59
2023-02-04T08:34:20.573Z,1.61
2023-02-04T08:35:29.270Z,1.64
2023-02-04T08:36:38.428Z,1.59
2023-02-04T08:37:48.008Z,1.57
2023-02-04T08:38:56.633Z,1.53
2023-02-04T08:40:06.845Z,1.53
2023-02-04T08:41:15.538Z,1.55
2023-02-04T08:42:25.172Z,1.57
2023-02-04T08:43:33.703Z,1.60
2023-02-04T08:44:43.123Z,1.64
2023-02-04T08:45:54.002Z,1.70
2023-02-04T08:47:03.423Z,1.70
2023-02-04T08:48:13.193Z,1.74
2023-02-04T08:49:22.940Z,1.72
2023-02-04T08:50:31.963Z,1.65
2023-02-04T08:51:40.682Z,1.52
2023-02-04T08:52:49.235Z,1.47
2023-02-04T08:53:59.316Z,1.48
2023-02-04T08:55:09.478Z,1.51
2023-02-04T08:56:21.086Z,1.54
2023-02-04T08:57:29.626Z,1.58
2023-02-04T08:58:39.184Z,1.60
2023-02-04T08:59:48.094Z,1.60
2023-02-04T09:00:57.387Z,1.59
2023-02-04T09:02:07.186Z,1.60
2023-02-04T09:03:15.942Z,1.61
2023-02-04T09:04:26.112Z,1.64
2023-02-04T09:05:35.246Z,1.68
2023-02-04T09:06:45.220Z,1.67
2023-02-04T09:07:53.771Z,1.72
2023-02-04T09:10:17.946Z,1.84
2023-02-04T09:11:26.463Z,1.70
2023-02-04T09:12:35.103Z,1.67
2023-02-04T09:13:44.036Z,1.68
2023-02-04T09:14:53.160Z,1.72
2023-02-04T09:16:02.852Z,1.76
2023-02-04T09:17:12.878Z,1.78
2023-02-04T09:18:22.734Z,1.82
2023-02-04T09:19:32.477Z,1.83
2023-02-04T09:20:43.440Z,1.84
2023-02-04T09:21:53.231Z,1.89
2023-02-04T09:23:01.779Z,1.84
2023-02-04T09:24:12.373Z,1.76
2023-02-04T09:25:21.928Z,1.76
2023-02-04T09:27:46.433Z,1.77
2023-02-04T09:28:55.619Z,1.65
2023-02-04T09:30:05.331Z,1.65
2023-02-04T09:31:14.653Z,1.66
2023-02-04T09:32:24.653Z,1.67
2023-02-04T09:33:34.298Z,1.70
2023-02-04T09:34:43.181Z,1.73
2023-02-04T09:35:52.209Z,1.74
2023-02-04T09:37:00.736Z,1.75
2023-02-04T09:38:10.654Z,1.75
2023-02-04T09:39:21.201Z,1.74
2023-02-04T09:40:39.427Z,1.72
2023-02-04T09:41:48.366Z,1.73
2023-02-04T09:42:58.279Z,1.69
2023-02-04T09:44:16.894Z,1.68
2023-02-04T09:47:03.539Z,1.84
2023-02-04T09:48:14.070Z,1.73
2023-02-04T09:49:23.629Z,1.70
2023-02-04T09:50:33.223Z,1.71
2023-02-04T09:51:44.287Z,1.72
2023-02-04T09:52:56.400Z,1.73
2023-02-04T09:55:37.654Z,1.88
2023-02-04T09:56:47.684Z,1.76
2023-02-04T09:57:57.257Z,1.73
2023-02-04T12:03:29.991Z,0.71
2023-02-04T12:05:55.241Z,0.85
2023-02-04T12:07:04.184Z,0.84
2023-02-04T12:08:25.575Z,0.98
2023-02-04T12:09:34.171Z,1.07
2023-02-04T12:12:03.685Z,1.25
2023-02-04T12:14:36.368Z,1.24
2023-02-04T12:16:03.133Z,1.16
2023-02-04T12:17:20.098Z,1.06
2023-02-04T12:18:29.907Z,1.06
2023-02-04T12:19:39.656Z,1.13
2023-02-04T12:20:48.764Z,0.99
2023-02-04T12:21:58.044Z,0.94
2023-02-04T12:23:08.264Z,0.90
2023-02-04T12:24:17.714Z,1.00
2023-02-04T12:25:26.729Z,0.99
2023-02-04T12:26:36.775Z,1.01
2023-02-04T12:27:45.611Z,1.05
2023-02-04T12:28:54.115Z,1.07
2023-02-04T12:30:03.038Z,1.14
2023-02-04T12:31:11.750Z,1.09
2023-02-04T12:32:20.287Z,1.11
2023-02-04T12:33:29.729Z,1.13
2023-02-04T12:34:39.311Z,1.04
2023-02-04T12:35:48.799Z,1.07
2023-02-04T12:36:57.711Z,1.12
2023-02-04T12:38:09.828Z,1.16
2023-02-04T12:39:18.329Z,1.12
2023-02-04T12:40:28.412Z,1.11
2023-02-04T12:41:37.275Z,1.16
2023-02-04T12:42:45.871Z,1.19
2023-02-04T12:43:55.190Z,1.09
2023-02-04T12:45:04.706Z,1.00
2023-02-04T12:46:14.838Z,1.02
2023-02-04T12:47:23.926Z,0.97
2023-02-04T12:48:32.631Z,0.90
2023-02-04T12:49:41.393Z,0.73
2023-02-04T12:50:50.095Z,0.73
2023-02-04T12:52:00.984Z,0.85
2023-02-04T12:53:09.454Z,0.91
2023-02-04T12:54:18.106Z,0.84
2023-02-04T12:55:29.836Z,0.84
2023-02-04T12:57:55.666Z,0.99
2023-02-04T12:59:05.285Z,0.82
2023-02-04T13:00:17.516Z,0.90
2023-02-04T13:01:28.333Z,0.94
2023-02-04T13:02:36.988Z,0.94
2023-02-04T13:03:47.547Z,0.97
2023-02-04T13:04:57.106Z,0.81
2023-02-04T13:06:06.424Z,0.86
2023-02-04T13:07:14.952Z,0.91
2023-02-04T13:09:38.849Z,1.02
2023-02-04T13:10:49.643Z,0.96
2023-02-04T13:11:59.150Z,1.00
2023-02-04T13:13:07.640Z,0.97
2023-02-04T13:14:17.525Z,0.72
2023-02-04T13:15:27.380Z,0.64
2023-02-04T13:16:37.216Z,0.75
2023-02-04T13:17:46.929Z,0.79
2023-02-04T13:18:55.590Z,0.82
2023-02-04T13:20:05.940Z,0.67
2023-02-04T13:21:14.509Z,0.71
2023-02-04T13:22:23.321Z,0.71
2023-02-04T13:23:32.562Z,0.68
2023-02-04T13:24:43.790Z,0.73
2023-02-04T13:25:53.319Z,0.74
2023-02-04T13:27:02.183Z,0.74
2023-02-04T13:28:10.727Z,0.62
2023-02-04T13:29:19.775Z,0.69
2023-02-04T13:30:28.804Z,0.67
2023-02-04T13:31:37.436Z,0.64
2023-02-04T13:32:46.799Z,0.40
2023-02-04T13:33:55.593Z,0.50
2023-02-04T13:35:06.601Z,0.39
2023-02-04T13:36:17.240Z,0.37
2023-02-04T13:37:25.937Z,0.21
2023-02-04T13:38:35.354Z,0.23
2023-02-04T13:39:45.027Z,0.20
2023-02-04T13:40:53.668Z,0.24
2023-02-04T13:42:04.613Z,0.31
2023-02-04T13:43:14.574Z,0.38
2023-02-04T13:44:23.642Z,0.38
2023-02-04T13:45:32.647Z,0.40
2023-02-04T13:46:41.751Z,0.38
2023-02-04T13:47:51.774Z,0.34
2023-02-04T13:49:00.505Z,0.42
2023-02-04T13:50:09.781Z,0.46
2023-02-04T13:51:18.968Z,0.43
2023-02-04T13:52:27.527Z,0.31
2023-02-04T13:54:50.827Z,0.28
2023-02-04T13:56:03.009Z,0.22
2023-02-04T13:57:12.073Z,0.13
2023-02-04T13:58:21.196Z,0.13
2023-02-04T13:59:30.243Z,0.13
2023-02-04T14:00:39.383Z,0.20
2023-02-04T14:01:48.545Z,0.25
2023-02-04T14:02:57.945Z,0.25
2023-02-04T14:04:06.578Z,0.29
2023-02-04T14:05:17.027Z,0.23
2023-02-04T14:06:28.740Z,0.17
2023-02-04T14:07:37.360Z,0.07
2023-02-04T14:08:46.867Z,0.12
2023-02-04T14:09:55.889Z,0.11
2023-02-04T14:11:06.041Z,-0.04
2023-02-04T14:12:16.273Z,-0.05
2023-02-04T14:13:26.891Z,0.01
2023-02-04T14:14:36.561Z,0.04
2023-02-04T14:15:45.415Z,0.12
2023-02-04T14:16:54.160Z,0.14
2023-02-04T14:18:04.176Z,0.19
2023-02-04T14:19:13.590Z,0.21
2023-02-04T14:20:22.610Z,0.21
2023-02-04T14:21:31.225Z,0.23
2023-02-04T14:22:40.260Z,0.15
2023-02-04T14:23:48.869Z,0.16
2023-02-04T14:24:57.888Z,0.22
2023-02-04T14:26:09.468Z,0.25
2023-02-04T14:27:19.098Z,0.27
2023-02-04T14:28:28.326Z,0.29
2023-02-04T14:29:37.677Z,0.32
2023-02-04T14:30:47.699Z,0.28
2023-02-04T14:31:57.250Z,0.21
2023-02-04T14:34:23.847Z,0.19
2023-02-04T14:35:34.201Z,0.13
2023-02-04T14:36:43.332Z,0.12
2023-02-04T14:37:52.846Z,0.12
2023-02-04T14:39:01.868Z,0.04
2023-02-04T14:40:13.678Z,0.01
2023-02-04T14:41:23.490Z,0.01
2023-02-04T14:42:32.205Z,0.04
2023-02-04T14:43:41.183Z,-0.06
2023-02-04T14:44:50.094Z,-0.09
2023-02-04T14:45:58.666Z,-0.06
2023-02-04T14:47:07.539Z,-0.10
2023-02-04T14:48:16.138Z,-0.14
2023-02-04T14:49:25.251Z,-0.15
2023-02-04T14:50:36.182Z,-0.36
2023-02-04T14:51:44.554Z,-0.29
2023-02-04T14:52:54.641Z,-0.25
2023-02-04T14:54:03.897Z,-0.25
2023-02-04T14:56:28.945Z,-0.11
2023-02-04T14:57:37.465Z,-0.54
2023-02-04T14:58:46.922Z,-0.51
2023-02-04T14:59:57.773Z,-0.42
2023-02-04T15:01:06.524Z,-0.35
2023-02-04T15:02:15.821Z,-0.28
2023-02-04T15:03:24.625Z,-0.24
